sensor_id;sensor_type;location;lat;lon;timestamp;pressure;altitude;pressure_sealevel;temperature;humidity
11011;BME280;5558;42.702;23.178;2023-06-19T00:00:30;93777.69;;;17.06;100.00
11011;BME280;5558;42.702;23.178;2023-06-19T00:02:57;93783.13;;;17.01;100.00
11011;BME280;5558;42.702;23.178;2023-06-19T00:05:24;93784.31;;;17.09;100.00
11011;BME280;5558;42.702;23.178;2023-06-19T00:07:51;93779.34;;;17.16;100.00
11011;BME280;5558;42.702;23.178;2023-06-19T00:10:17;93781.63;;;17.23;100.00
11011;BME280;5558;42.702;23.178;2023-06-19T00:12:46;93779.25;;;17.21;100.00
11011;BME280;5558;42.702;23.178;2023-06-19T00:15:12;93782.94;;;17.34;100.00
11011;BME280;5558;42.702;23.178;2023-06-19T00:17:39;93769.88;;;17.32;100.00
11011;BME280;5558;42.702;23.178;2023-06-19T00:20:07;93750.63;;;17.22;100.00
11011;BME280;5558;42.702;23.178;2023-06-19T00:22:34;93768.25;;;17.45;100.00
11011;BME280;5558;42.702;23.178;2023-06-19T00:25:01;93769.56;;;17.47;100.00
11011;BME280;5558;42.702;23.178;2023-06-19T00:27:28;93770.53;;;17.51;100.00
11011;BME280;5558;42.702;23.178;2023-06-19T00:29:56;93771.22;;;17.57;100.00
11011;BME280;5558;42.702;23.178;2023-06-19T00:32:27;93762.31;;;17.48;100.00
11011;BME280;5558;42.702;23.178;2023-06-19T00:34:53;93770.72;;;17.55;100.00
11011;BME280;5558;42.702;23.178;2023-06-19T00:37:20;93768.97;;;17.50;100.00
11011;BME280;5558;42.702;23.178;2023-06-19T00:39:47;93772.81;;;17.44;100.00
11011;BME280;5558;42.702;23.178;2023-06-19T00:42:13;93762.09;;;17.44;100.00
11011;BME280;5558;42.702;23.178;2023-06-19T00:44:40;93765.91;;;17.43;100.00
11011;BME280;5558;42.702;23.178;2023-06-19T00:47:08;93764.00;;;17.44;100.00
11011;BME280;5558;42.702;23.178;2023-06-19T00:49:35;93756.19;;;17.34;100.00
11011;BME280;5558;42.702;23.178;2023-06-19T00:52:02;93755.56;;;17.28;100.00
11011;BME280;5558;42.702;23.178;2023-06-19T00:54:30;93755.66;;;17.23;100.00
11011;BME280;5558;42.702;23.178;2023-06-19T00:56:57;93753.94;;;17.27;100.00
11011;BME280;5558;42.702;23.178;2023-06-19T00:59:24;93744.16;;;17.23;100.00
11011;BME280;5558;42.702;23.178;2023-06-19T01:01:51;93740.00;;;17.17;100.00
11011;BME280;5558;42.702;23.178;2023-06-19T01:04:19;93745.78;;;17.10;100.00
11011;BME280;5558;42.702;23.178;2023-06-19T01:06:52;93741.56;;;16.95;100.00
11011;BME280;5558;42.702;23.178;2023-06-19T01:09:27;93734.53;;;16.99;100.00
11011;BME280;5558;42.702;23.178;2023-06-19T01:11:59;93743.44;;;16.95;100.00
11011;BME280;5558;42.702;23.178;2023-06-19T01:14:33;93740.19;;;16.84;100.00
11011;BME280;5558;42.702;23.178;2023-06-19T01:17:02;93733.88;;;16.80;100.00
11011;BME280;5558;42.702;23.178;2023-06-19T01:19:31;93731.94;;;16.72;100.00
11011;BME280;5558;42.702;23.178;2023-06-19T01:22:02;93724.91;;;16.63;100.00
11011;BME280;5558;42.702;23.178;2023-06-19T01:24:29;93722.94;;;16.55;100.00
11011;BME280;5558;42.702;23.178;2023-06-19T01:26:55;93727.59;;;16.49;100.00
11011;BME280;5558;42.702;23.178;2023-06-19T01:29:22;93726.88;;;16.44;100.00
11011;BME280;5558;42.702;23.178;2023-06-19T01:31:53;93732.25;;;16.44;100.00
11011;BME280;5558;42.702;23.178;2023-06-19T01:34:25;93732.03;;;16.40;100.00
11011;BME280;5558;42.702;23.178;2023-06-19T01:36:53;93734.41;;;16.28;100.00
11011;BME280;5558;42.702;23.178;2023-06-19T01:39:24;93715.91;;;16.18;100.00
11011;BME280;5558;42.702;23.178;2023-06-19T01:41:52;93735.59;;;16.22;100.00
11011;BME280;5558;42.702;23.178;2023-06-19T01:44:20;93732.72;;;16.19;100.00
11011;BME280;5558;42.702;23.178;2023-06-19T01:46:48;93713.66;;;16.12;100.00
11011;BME280;5558;42.702;23.178;2023-06-19T01:49:15;93728.38;;;16.23;100.00
11011;BME280;5558;42.702;23.178;2023-06-19T01:51:42;93726.91;;;16.17;100.00
11011;BME280;5558;42.702;23.178;2023-06-19T01:54:09;93736.69;;;16.21;100.00
11011;BME280;5558;42.702;23.178;2023-06-19T01:56:37;93738.66;;;16.16;100.00
11011;BME280;5558;42.702;23.178;2023-06-19T01:59:04;93738.75;;;16.11;100.00
11011;BME280;5558;42.702;23.178;2023-06-19T02:01:31;93740.91;;;16.09;100.00
11011;BME280;5558;42.702;23.178;2023-06-19T02:03:57;93743.78;;;16.12;100.00
11011;BME280;5558;42.702;23.178;2023-06-19T02:06:24;93737.78;;;16.07;100.00
11011;BME280;5558;42.702;23.178;2023-06-19T02:08:51;93742.31;;;16.06;100.00
11011;BME280;5558;42.702;23.178;2023-06-19T02:11:17;93753.19;;;15.96;100.00
11011;BME280;5558;42.702;23.178;2023-06-19T02:13:45;93751.59;;;15.95;100.00
11011;BME280;5558;42.702;23.178;2023-06-19T02:16:12;93753.38;;;15.86;100.00
11011;BME280;5558;42.702;23.178;2023-06-19T02:18:39;93725.84;;;15.72;100.00
11011;BME280;5558;42.702;23.178;2023-06-19T02:21:05;93754.44;;;15.85;100.00
11011;BME280;5558;42.702;23.178;2023-06-19T02:23:33;93756.44;;;15.79;100.00
11011;BME280;5558;42.702;23.178;2023-06-19T02:25:59;93757.50;;;15.78;100.00
11011;BME280;5558;42.702;23.178;2023-06-19T02:28:26;93758.59;;;15.77;100.00
11011;BME280;5558;42.702;23.178;2023-06-19T02:30:55;93763.72;;;15.74;100.00
11011;BME280;5558;42.702;23.178;2023-06-19T02:33:21;93759.31;;;15.64;100.00
11011;BME280;5558;42.702;23.178;2023-06-19T02:35:48;93766.56;;;15.64;100.00
11011;BME280;5558;42.702;23.178;2023-06-19T02:38:15;93759.84;;;15.66;100.00
11011;BME280;5558;42.702;23.178;2023-06-19T02:40:44;93759.63;;;15.63;100.00
11011;BME280;5558;42.702;23.178;2023-06-19T02:43:10;93769.16;;;15.69;100.00
11011;BME280;5558;42.702;23.178;2023-06-19T02:45:37;93767.06;;;15.66;100.00
11011;BME280;5558;42.702;23.178;2023-06-19T02:48:06;93773.03;;;15.58;100.00
11011;BME280;5558;42.702;23.178;2023-06-19T02:50:33;93772.28;;;15.57;100.00
11011;BME280;5558;42.702;23.178;2023-06-19T02:52:59;93783.34;;;15.64;100.00
11011;BME280;5558;42.702;23.178;2023-06-19T02:55:26;93778.63;;;15.43;100.00
11011;BME280;5558;42.702;23.178;2023-06-19T02:57:54;93788.22;;;15.25;100.00
11011;BME280;5558;42.702;23.178;2023-06-19T03:00:21;93783.28;;;15.32;100.00
11011;BME280;5558;42.702;23.178;2023-06-19T03:02:48;93777.84;;;15.42;100.00
11011;BME280;5558;42.702;23.178;2023-06-19T03:05:17;93784.56;;;15.40;100.00
11011;BME280;5558;42.702;23.178;2023-06-19T03:07:44;93783.88;;;15.48;100.00
11011;BME280;5558;42.702;23.178;2023-06-19T03:10:11;93779.56;;;15.52;100.00
11011;BME280;5558;42.702;23.178;2023-06-19T03:12:37;93777.09;;;15.37;100.00
11011;BME280;5558;42.702;23.178;2023-06-19T03:15:05;93779.34;;;15.30;100.00
11011;BME280;5558;42.702;23.178;2023-06-19T03:17:32;93773.59;;;15.41;100.00
11011;BME280;5558;42.702;23.178;2023-06-19T03:19:59;93775.63;;;16.09;100.00
11011;BME280;5558;42.702;23.178;2023-06-19T03:22:27;93776.13;;;16.92;100.00
11011;BME280;5558;42.702;23.178;2023-06-19T03:24:53;93774.16;;;17.69;100.00
11011;BME280;5558;42.702;23.178;2023-06-19T03:27:20;93783.78;;;18.31;100.00
11011;BME280;5558;42.702;23.178;2023-06-19T03:29:47;93775.22;;;19.07;100.00
11011;BME280;5558;42.702;23.178;2023-06-19T03:32:14;93777.25;;;19.96;100.00
11011;BME280;5558;42.702;23.178;2023-06-19T03:34:41;93771.72;;;20.93;93.46
11011;BME280;5558;42.702;23.178;2023-06-19T03:37:09;93777.94;;;21.85;84.44
11011;BME280;5558;42.702;23.178;2023-06-19T03:39:37;93777.38;;;22.80;75.56
11011;BME280;5558;42.702;23.178;2023-06-19T03:42:05;93773.59;;;23.69;69.78
11011;BME280;5558;42.702;23.178;2023-06-19T03:44:32;93773.28;;;24.42;63.49
11011;BME280;5558;42.702;23.178;2023-06-19T03:46:58;93777.03;;;25.30;58.99
11011;BME280;5558;42.702;23.178;2023-06-19T03:49:25;93776.97;;;26.15;54.86
11011;BME280;5558;42.702;23.178;2023-06-19T03:51:52;93784.72;;;27.00;51.20
11011;BME280;5558;42.702;23.178;2023-06-19T03:54:19;93775.41;;;27.76;48.70
11011;BME280;5558;42.702;23.178;2023-06-19T03:56:48;93786.53;;;28.56;46.36
11011;BME280;5558;42.702;23.178;2023-06-19T03:59:14;93784.97;;;29.39;43.39
11011;BME280;5558;42.702;23.178;2023-06-19T04:01:41;93779.88;;;29.99;40.60
11011;BME280;5558;42.702;23.178;2023-06-19T04:04:08;93782.13;;;30.72;37.99
11011;BME280;5558;42.702;23.178;2023-06-19T04:06:35;93783.81;;;31.37;36.66
11011;BME280;5558;42.702;23.178;2023-06-19T04:09:01;93784.88;;;32.06;36.24
11011;BME280;5558;42.702;23.178;2023-06-19T04:11:28;93782.00;;;32.48;34.56
11011;BME280;5558;42.702;23.178;2023-06-19T04:13:56;93787.13;;;33.15;33.05
11011;BME280;5558;42.702;23.178;2023-06-19T04:16:23;93783.19;;;33.67;31.90
11011;BME280;5558;42.702;23.178;2023-06-19T04:18:50;93783.72;;;34.29;31.11
11011;BME280;5558;42.702;23.178;2023-06-19T04:21:16;93790.72;;;34.68;29.92
11011;BME280;5558;42.702;23.178;2023-06-19T04:23:43;93787.25;;;34.94;29.21
11011;BME280;5558;42.702;23.178;2023-06-19T04:26:10;93782.53;;;35.21;29.09
11011;BME280;5558;42.702;23.178;2023-06-19T04:28:36;93778.09;;;35.27;28.66
11011;BME280;5558;42.702;23.178;2023-06-19T04:31:06;93783.81;;;35.39;28.51
11011;BME280;5558;42.702;23.178;2023-06-19T04:33:33;93777.16;;;36.06;27.66
11011;BME280;5558;42.702;23.178;2023-06-19T04:36:00;93769.06;;;36.58;26.85
11011;BME280;5558;42.702;23.178;2023-06-19T04:38:27;93774.56;;;36.78;26.09
11011;BME280;5558;42.702;23.178;2023-06-19T04:40:53;93774.56;;;36.97;26.09
11011;BME280;5558;42.702;23.178;2023-06-19T04:43:22;93763.22;;;36.36;26.07
11011;BME280;5558;42.702;23.178;2023-06-19T04:45:50;93768.59;;;36.79;26.34
11011;BME280;5558;42.702;23.178;2023-06-19T04:48:18;93769.97;;;36.71;25.28
11011;BME280;5558;42.702;23.178;2023-06-19T04:50:44;93769.06;;;36.58;25.90
11011;BME280;5558;42.702;23.178;2023-06-19T04:53:11;93772.38;;;37.40;24.95
11011;BME280;5558;42.702;23.178;2023-06-19T04:55:38;93768.09;;;37.04;25.16
11011;BME280;5558;42.702;23.178;2023-06-19T04:58:05;93766.25;;;37.33;24.44
11011;BME280;5558;42.702;23.178;2023-06-19T05:00:31;93770.47;;;37.53;24.60
11011;BME280;5558;42.702;23.178;2023-06-19T05:02:58;93768.00;;;37.75;24.96
11011;BME280;5558;42.702;23.178;2023-06-19T05:05:28;93769.34;;;38.28;24.35
11011;BME280;5558;42.702;23.178;2023-06-19T05:07:54;93775.31;;;38.26;24.03
11011;BME280;5558;42.702;23.178;2023-06-19T05:10:21;93773.72;;;38.82;23.42
11011;BME280;5558;42.702;23.178;2023-06-19T05:12:48;93773.66;;;38.98;23.62
11011;BME280;5558;42.702;23.178;2023-06-19T05:15:14;93777.44;;;39.42;22.77
11011;BME280;5558;42.702;23.178;2023-06-19T05:17:41;93779.09;;;39.65;22.92
11011;BME280;5558;42.702;23.178;2023-06-19T05:20:09;93777.41;;;38.51;22.92
11011;BME280;5558;42.702;23.178;2023-06-19T05:22:38;93777.47;;;39.17;22.65
11011;BME280;5558;42.702;23.178;2023-06-19T05:25:06;93783.44;;;39.53;22.17
11011;BME280;5558;42.702;23.178;2023-06-19T05:27:32;93796.72;;;39.33;22.41
11011;BME280;5558;42.702;23.178;2023-06-19T05:29:59;93797.44;;;38.96;22.52
11011;BME280;5558;42.702;23.178;2023-06-19T05:32:26;93795.19;;;38.66;22.74
11011;BME280;5558;42.702;23.178;2023-06-19T05:34:53;93796.44;;;38.20;23.04
11011;BME280;5558;42.702;23.178;2023-06-19T05:37:19;93803.03;;;37.94;23.52
11011;BME280;5558;42.702;23.178;2023-06-19T05:39:48;93804.50;;;37.99;23.47
11011;BME280;5558;42.702;23.178;2023-06-19T05:42:15;93796.13;;;38.88;23.19
11011;BME280;5558;42.702;23.178;2023-06-19T05:44:42;93800.09;;;38.87;22.11
11011;BME280;5558;42.702;23.178;2023-06-19T05:47:09;93800.00;;;38.90;22.87
11011;BME280;5558;42.702;23.178;2023-06-19T05:49:36;93789.94;;;38.96;23.26
11011;BME280;5558;42.702;23.178;2023-06-19T05:52:07;93807.81;;;39.21;22.99
11011;BME280;5558;42.702;23.178;2023-06-19T05:54:33;93798.44;;;38.89;22.21
11011;BME280;5558;42.702;23.178;2023-06-19T05:57:01;93808.25;;;39.32;22.62
11011;BME280;5558;42.702;23.178;2023-06-19T05:59:28;93801.44;;;38.25;23.30
11011;BME280;5558;42.702;23.178;2023-06-19T06:01:55;93806.09;;;37.83;23.45
11011;BME280;5558;42.702;23.178;2023-06-19T06:04:22;93796.47;;;37.04;24.78
11011;BME280;5558;42.702;23.178;2023-06-19T06:06:48;93801.53;;;37.25;24.48
11011;BME280;5558;42.702;23.178;2023-06-19T06:09:15;93805.09;;;37.26;24.08
11011;BME280;5558;42.702;23.178;2023-06-19T06:11:42;93799.81;;;37.31;24.20
11011;BME280;5558;42.702;23.178;2023-06-19T06:14:10;93804.34;;;37.73;24.23
11011;BME280;5558;42.702;23.178;2023-06-19T06:16:36;93815.88;;;37.36;24.09
11011;BME280;5558;42.702;23.178;2023-06-19T06:19:03;93807.25;;;37.50;24.63
11011;BME280;5558;42.702;23.178;2023-06-19T06:21:30;93808.91;;;37.64;23.79
11011;BME280;5558;42.702;23.178;2023-06-19T06:23:57;93805.38;;;37.12;23.64
11011;BME280;5558;42.702;23.178;2023-06-19T06:26:24;93808.78;;;36.21;25.24
11011;BME280;5558;42.702;23.178;2023-06-19T06:28:50;93815.38;;;35.81;25.93
11011;BME280;5558;42.702;23.178;2023-06-19T06:31:19;93817.06;;;35.75;25.50
11011;BME280;5558;42.702;23.178;2023-06-19T06:33:45;93819.47;;;34.93;25.40
11011;BME280;5558;42.702;23.178;2023-06-19T06:36:14;93812.97;;;34.80;26.49
11011;BME280;5558;42.702;23.178;2023-06-19T06:38:41;93818.34;;;34.91;26.30
11011;BME280;5558;42.702;23.178;2023-06-19T06:41:09;93815.88;;;35.26;26.53
11011;BME280;5558;42.702;23.178;2023-06-19T06:43:36;93818.94;;;35.05;26.61
11011;BME280;5558;42.702;23.178;2023-06-19T06:46:04;93806.63;;;34.53;27.12
11011;BME280;5558;42.702;23.178;2023-06-19T06:48:32;93807.06;;;33.70;27.20
11011;BME280;5558;42.702;23.178;2023-06-19T06:50:58;93800.47;;;34.05;27.08
11011;BME280;5558;42.702;23.178;2023-06-19T06:53:26;93807.97;;;34.72;27.13
11011;BME280;5558;42.702;23.178;2023-06-19T06:55:57;93800.50;;;35.02;25.65
11011;BME280;5558;42.702;23.178;2023-06-19T06:58:25;93818.00;;;34.18;26.70
11011;BME280;5558;42.702;23.178;2023-06-19T07:00:51;93806.75;;;34.42;26.55
11011;BME280;5558;42.702;23.178;2023-06-19T07:03:18;93791.16;;;33.95;26.43
11011;BME280;5558;42.702;23.178;2023-06-19T07:05:47;93807.28;;;34.27;27.02
11011;BME280;5558;42.702;23.178;2023-06-19T07:08:15;93807.81;;;34.52;25.91
11011;BME280;5558;42.702;23.178;2023-06-19T07:10:42;93809.56;;;33.54;27.84
11011;BME280;5558;42.702;23.178;2023-06-19T07:13:09;93803.69;;;33.01;27.60
11011;BME280;5558;42.702;23.178;2023-06-19T07:15:35;93806.84;;;32.92;28.19
11011;BME280;5558;42.702;23.178;2023-06-19T07:18:02;93809.19;;;32.94;27.73
11011;BME280;5558;42.702;23.178;2023-06-19T07:20:29;93808.78;;;32.95;28.10
11011;BME280;5558;42.702;23.178;2023-06-19T07:22:57;93799.25;;;32.49;28.67
11011;BME280;5558;42.702;23.178;2023-06-19T07:25:25;93817.16;;;32.67;28.81
11011;BME280;5558;42.702;23.178;2023-06-19T07:27:52;93806.41;;;31.97;29.47
11011;BME280;5558;42.702;23.178;2023-06-19T07:30:19;93818.59;;;31.61;30.53
11011;BME280;5558;42.702;23.178;2023-06-19T07:32:46;93793.84;;;29.83;33.01
11011;BME280;5558;42.702;23.178;2023-06-19T07:35:13;93812.19;;;28.55;34.89
11011;BME280;5558;42.702;23.178;2023-06-19T07:37:39;93812.19;;;28.22;35.73
11011;BME280;5558;42.702;23.178;2023-06-19T07:40:09;93810.50;;;27.85;38.18
11011;BME280;5558;42.702;23.178;2023-06-19T07:42:36;93822.19;;;27.59;36.33
11011;BME280;5558;42.702;23.178;2023-06-19T07:45:03;93805.13;;;27.62;37.65
11011;BME280;5558;42.702;23.178;2023-06-19T07:47:30;93803.50;;;28.13;38.92
11011;BME280;5558;42.702;23.178;2023-06-19T07:49:57;93810.97;;;28.20;38.15
11011;BME280;5558;42.702;23.178;2023-06-19T07:52:24;93808.53;;;28.41;35.56
11011;BME280;5558;42.702;23.178;2023-06-19T07:54:52;93811.94;;;28.34;35.40
11011;BME280;5558;42.702;23.178;2023-06-19T07:57:21;93816.38;;;28.16;36.60
11011;BME280;5558;42.702;23.178;2023-06-19T07:59:50;93815.69;;;28.52;33.52
11011;BME280;5558;42.702;23.178;2023-06-19T08:02:17;93819.03;;;28.42;35.71
11011;BME280;5558;42.702;23.178;2023-06-19T08:04:44;93819.47;;;28.15;36.21
11011;BME280;5558;42.702;23.178;2023-06-19T08:07:11;93824.03;;;28.37;36.43
11011;BME280;5558;42.702;23.178;2023-06-19T08:09:38;93813.91;;;28.70;34.30
11011;BME280;5558;42.702;23.178;2023-06-19T08:12:05;93822.00;;;28.63;34.11
11011;BME280;5558;42.702;23.178;2023-06-19T08:14:33;93817.34;;;28.01;34.59
11011;BME280;5558;42.702;23.178;2023-06-19T08:17:00;93819.00;;;28.06;33.54
11011;BME280;5558;42.702;23.178;2023-06-19T08:19:27;93815.38;;;27.98;35.16
11011;BME280;5558;42.702;23.178;2023-06-19T08:21:53;93811.59;;;27.28;37.65
11011;BME280;5558;42.702;23.178;2023-06-19T08:24:20;93809.94;;;27.46;37.31
11011;BME280;5558;42.702;23.178;2023-06-19T08:26:47;93799.69;;;27.13;35.21
11011;BME280;5558;42.702;23.178;2023-06-19T08:29:16;93818.91;;;26.79;34.17
11011;BME280;5558;42.702;23.178;2023-06-19T08:31:44;93816.13;;;26.75;36.65
11011;BME280;5558;42.702;23.178;2023-06-19T08:34:11;93823.31;;;27.09;37.63
11011;BME280;5558;42.702;23.178;2023-06-19T08:36:37;93823.84;;;27.41;35.17
11011;BME280;5558;42.702;23.178;2023-06-19T08:39:04;93809.25;;;27.79;36.11
11011;BME280;5558;42.702;23.178;2023-06-19T08:41:33;93819.50;;;27.63;35.85
11011;BME280;5558;42.702;23.178;2023-06-19T08:44:00;93805.97;;;27.66;36.32
11011;BME280;5558;42.702;23.178;2023-06-19T08:46:28;93817.22;;;27.16;34.33
11011;BME280;5558;42.702;23.178;2023-06-19T08:48:56;93816.44;;;27.15;36.36
11011;BME280;5558;42.702;23.178;2023-06-19T08:51:26;93805.63;;;27.41;35.32
11011;BME280;5558;42.702;23.178;2023-06-19T08:53:56;93805.19;;;26.72;37.62
11011;BME280;5558;42.702;23.178;2023-06-19T08:56:23;93813.06;;;26.38;38.23
11011;BME280;5558;42.702;23.178;2023-06-19T08:58:50;93815.69;;;26.31;35.71
11011;BME280;5558;42.702;23.178;2023-06-19T09:01:17;93817.59;;;26.12;37.73
11011;BME280;5558;42.702;23.178;2023-06-19T09:03:44;93814.09;;;26.11;39.84
11011;BME280;5558;42.702;23.178;2023-06-19T09:06:15;93810.63;;;26.53;38.32
11011;BME280;5558;42.702;23.178;2023-06-19T09:08:42;93812.13;;;26.69;38.55
11011;BME280;5558;42.702;23.178;2023-06-19T09:11:11;93808.66;;;26.30;37.82
11011;BME280;5558;42.702;23.178;2023-06-19T09:13:38;93809.13;;;25.79;40.20
11011;BME280;5558;42.702;23.178;2023-06-19T09:16:06;93812.97;;;25.78;39.06
11011;BME280;5558;42.702;23.178;2023-06-19T09:18:43;93806.66;;;25.89;40.99
11011;BME280;5558;42.702;23.178;2023-06-19T09:21:16;93805.41;;;25.87;40.57
11011;BME280;5558;42.702;23.178;2023-06-19T09:23:43;93810.03;;;26.02;38.66
11011;BME280;5558;42.702;23.178;2023-06-19T09:26:10;93805.94;;;26.11;39.25
11011;BME280;5558;42.702;23.178;2023-06-19T09:28:40;93802.53;;;26.14;40.40
11011;BME280;5558;42.702;23.178;2023-06-19T09:31:07;93801.06;;;26.01;37.83
11011;BME280;5558;42.702;23.178;2023-06-19T09:33:36;93804.22;;;26.03;42.34
11011;BME280;5558;42.702;23.178;2023-06-19T09:36:05;93811.38;;;26.11;41.99
11011;BME280;5558;42.702;23.178;2023-06-19T09:38:35;93799.28;;;25.71;40.79
11011;BME280;5558;42.702;23.178;2023-06-19T09:41:05;93816.41;;;25.09;38.91
11011;BME280;5558;42.702;23.178;2023-06-19T09:43:34;93805.22;;;24.95;43.00
11011;BME280;5558;42.702;23.178;2023-06-19T09:46:02;93802.03;;;25.24;42.92
11011;BME280;5558;42.702;23.178;2023-06-19T09:48:31;93808.84;;;25.33;40.74
11011;BME280;5558;42.702;23.178;2023-06-19T09:51:08;93804.13;;;25.46;39.62
11011;BME280;5558;42.702;23.178;2023-06-19T09:53:37;93801.66;;;25.57;40.64
11011;BME280;5558;42.702;23.178;2023-06-19T09:56:05;93797.78;;;25.07;42.20
11011;BME280;5558;42.702;23.178;2023-06-19T09:58:33;93795.84;;;25.23;43.25
11011;BME280;5558;42.702;23.178;2023-06-19T10:01:03;93793.91;;;25.24;42.72
11011;BME280;5558;42.702;23.178;2023-06-19T10:03:31;93792.28;;;25.19;40.87
11011;BME280;5558;42.702;23.178;2023-06-19T10:05:58;93789.72;;;25.26;42.45
11011;BME280;5558;42.702;23.178;2023-06-19T10:08:28;93791.81;;;25.49;41.58
11011;BME280;5558;42.702;23.178;2023-06-19T10:10:57;93796.00;;;25.46;39.24
11011;BME280;5558;42.702;23.178;2023-06-19T10:13:31;93791.66;;;25.26;40.54
11011;BME280;5558;42.702;23.178;2023-06-19T10:15:58;93788.59;;;25.12;40.96
11011;BME280;5558;42.702;23.178;2023-06-19T10:18:25;93795.63;;;25.32;43.20
11011;BME280;5558;42.702;23.178;2023-06-19T10:20:53;93790.38;;;25.55;39.86
11011;BME280;5558;42.702;23.178;2023-06-19T10:23:21;93783.81;;;25.56;37.28
11011;BME280;5558;42.702;23.178;2023-06-19T10:25:57;93784.56;;;25.72;40.23
11011;BME280;5558;42.702;23.178;2023-06-19T10:28:25;93783.59;;;25.45;39.48
11011;BME280;5558;42.702;23.178;2023-06-19T10:30:54;93790.44;;;25.08;38.63
11011;BME280;5558;42.702;23.178;2023-06-19T10:33:22;93781.69;;;25.14;41.66
11011;BME280;5558;42.702;23.178;2023-06-19T10:35:49;93777.47;;;25.33;41.99
11011;BME280;5558;42.702;23.178;2023-06-19T10:38:17;93771.00;;;25.37;43.46
11011;BME280;5558;42.702;23.178;2023-06-19T10:40:44;93779.63;;;25.58;42.65
11011;BME280;5558;42.702;23.178;2023-06-19T10:43:19;93751.34;;;25.59;41.51
11011;BME280;5558;42.702;23.178;2023-06-19T10:45:46;93777.91;;;26.04;40.75
11011;BME280;5558;42.702;23.178;2023-06-19T10:48:18;93776.88;;;26.12;40.15
11011;BME280;5558;42.702;23.178;2023-06-19T10:50:45;93781.53;;;26.11;40.21
11011;BME280;5558;42.702;23.178;2023-06-19T10:53:23;93778.50;;;25.78;42.68
11011;BME280;5558;42.702;23.178;2023-06-19T10:55:54;93772.56;;;25.73;44.05
11011;BME280;5558;42.702;23.178;2023-06-19T10:58:22;93772.56;;;25.92;46.04
11011;BME280;5558;42.702;23.178;2023-06-19T11:00:49;93769.34;;;25.86;42.10
11011;BME280;5558;42.702;23.178;2023-06-19T11:03:16;93774.44;;;25.69;44.45
11011;BME280;5558;42.702;23.178;2023-06-19T11:05:44;93767.25;;;25.61;42.14
11011;BME280;5558;42.702;23.178;2023-06-19T11:08:17;93761.16;;;25.64;42.55
11011;BME280;5558;42.702;23.178;2023-06-19T11:10:44;93765.66;;;25.94;41.24
11011;BME280;5558;42.702;23.178;2023-06-19T11:13:14;93757.25;;;26.18;40.74
11011;BME280;5558;42.702;23.178;2023-06-19T11:15:43;93747.03;;;26.12;42.50
11011;BME280;5558;42.702;23.178;2023-06-19T11:18:10;93758.97;;;26.49;43.58
11011;BME280;5558;42.702;23.178;2023-06-19T11:20:47;93758.53;;;26.66;42.52
11011;BME280;5558;42.702;23.178;2023-06-19T11:23:15;93760.44;;;26.66;38.91
11011;BME280;5558;42.702;23.178;2023-06-19T11:25:43;93748.94;;;26.72;40.57
11011;BME280;5558;42.702;23.178;2023-06-19T11:28:14;93734.72;;;26.60;37.06
11011;BME280;5558;42.702;23.178;2023-06-19T11:30:44;93759.16;;;26.79;38.39
11011;BME280;5558;42.702;23.178;2023-06-19T11:33:20;93753.16;;;26.92;39.50
11011;BME280;5558;42.702;23.178;2023-06-19T11:35:48;93750.44;;;26.70;39.53
11011;BME280;5558;42.702;23.178;2023-06-19T11:38:19;93742.28;;;26.70;39.05
11011;BME280;5558;42.702;23.178;2023-06-19T11:40:45;93750.38;;;26.66;41.72
11011;BME280;5558;42.702;23.178;2023-06-19T11:43:23;93750.38;;;26.24;41.84
11011;BME280;5558;42.702;23.178;2023-06-19T11:45:51;93750.66;;;26.00;42.22
11011;BME280;5558;42.702;23.178;2023-06-19T11:48:22;93751.28;;;26.09;43.47
11011;BME280;5558;42.702;23.178;2023-06-19T11:50:49;93750.38;;;26.24;41.30
11011;BME280;5558;42.702;23.178;2023-06-19T11:53:17;93748.34;;;26.40;42.20
11011;BME280;5558;42.702;23.178;2023-06-19T11:55:44;93742.84;;;26.14;41.76
11011;BME280;5558;42.702;23.178;2023-06-19T11:58:10;93746.69;;;25.94;43.22
11011;BME280;5558;42.702;23.178;2023-06-19T12:00:37;93747.38;;;25.91;42.93
11011;BME280;5558;42.702;23.178;2023-06-19T12:03:06;93748.66;;;26.16;45.27
11011;BME280;5558;42.702;23.178;2023-06-19T12:05:32;93741.94;;;25.53;43.11
11011;BME280;5558;42.702;23.178;2023-06-19T12:07:59;93741.63;;;25.23;43.79
11011;BME280;5558;42.702;23.178;2023-06-19T12:10:27;93741.63;;;25.39;49.00
11011;BME280;5558;42.702;23.178;2023-06-19T12:12:54;93749.06;;;25.61;45.01
11011;BME280;5558;42.702;23.178;2023-06-19T12:15:21;93744.94;;;25.86;45.68
11011;BME280;5558;42.702;23.178;2023-06-19T12:17:48;93746.59;;;25.72;46.49
11011;BME280;5558;42.702;23.178;2023-06-19T12:20:16;93744.09;;;25.63;44.90
11011;BME280;5558;42.702;23.178;2023-06-19T12:22:43;93734.75;;;25.80;43.54
11011;BME280;5558;42.702;23.178;2023-06-19T12:25:10;93731.97;;;25.95;43.58
11011;BME280;5558;42.702;23.178;2023-06-19T12:27:37;93736.09;;;26.27;44.97
11011;BME280;5558;42.702;23.178;2023-06-19T12:30:05;93733.09;;;26.13;43.17
11011;BME280;5558;42.702;23.178;2023-06-19T12:32:32;93724.94;;;26.32;42.28
11011;BME280;5558;42.702;23.178;2023-06-19T12:34:59;93730.13;;;26.41;43.87
11011;BME280;5558;42.702;23.178;2023-06-19T12:37:27;93729.22;;;26.56;41.70
11011;BME280;5558;42.702;23.178;2023-06-19T12:39:54;93726.28;;;26.65;41.33
11011;BME280;5558;42.702;23.178;2023-06-19T12:42:21;93728.28;;;26.90;42.88
11011;BME280;5558;42.702;23.178;2023-06-19T12:44:47;93731.78;;;26.91;42.23
11011;BME280;5558;42.702;23.178;2023-06-19T12:47:14;93724.22;;;26.81;39.56
11011;BME280;5558;42.702;23.178;2023-06-19T12:49:43;93731.00;;;26.90;40.48
11011;BME280;5558;42.702;23.178;2023-06-19T12:52:10;93724.09;;;26.96;41.19
11011;BME280;5558;42.702;23.178;2023-06-19T12:54:38;93730.38;;;27.00;39.70
11011;BME280;5558;42.702;23.178;2023-06-19T12:57:07;93720.38;;;27.08;40.29
11011;BME280;5558;42.702;23.178;2023-06-19T12:59:34;93731.47;;;26.96;38.52